Time,TemperatureF,DewpointF,PressureIn,WindDirection,WindDirectionDegrees,WindSpeedMPH,WindSpeedGustMPH,Humidity,HourlyPrecipIn,Conditions,Clouds,dailyrainin,SoftwareType,DateUTC
2013-03-30 00:09:00,60.1,55.9,29.70,SE,136,5.0,7.0,86,0.00,,,0.00,Wunderground v.1.15,2013-03-29 23:09:00,
2013-03-30 00:14:00,60.2,56.0,29.70,South,170,6.0,7.0,86,0.00,,,0.00,Wunderground v.1.15,2013-03-29 23:14:00,
2013-03-30 00:24:00,60.7,55.8,29.70,SSE,162,4.0,8.0,84,0.00,,,0.00,Wunderground v.1.15,2013-03-29 23:24:00,
2013-03-30 00:29:00,61.0,55.8,29.69,SE,130,5.0,5.0,83,0.00,,,0.00,Wunderground v.1.15,2013-03-29 23:29:00,
2013-03-30 00:39:00,61.0,55.8,29.69,SSE,154,4.0,5.0,83,0.00,,,0.00,Wunderground v.1.15,2013-03-29 23:39:00,
2013-03-30 00:44:00,61.1,55.6,29.68,ESE,107,4.0,5.0,82,0.00,,,0.00,Wunderground v.1.15,2013-03-29 23:44:00,
2013-03-30 00:54:00,61.4,55.5,29.68,SE,143,5.0,11.0,81,0.00,,,0.00,Wunderground v.1.15,2013-03-29 23:54:00,
2013-03-30 00:59:00,61.3,55.4,29.68,SE,129,4.0,5.0,81,0.00,,,0.00,Wunderground v.1.15,2013-03-29 23:59:00,
2013-03-30 01:09:00,60.9,55.4,29.68,SE,134,1.0,2.0,82,0.00,,,0.00,Wunderground v.1.15,2013-03-30 00:09:00,
2013-03-30 01:14:00,60.8,55.3,29.67,SE,132,1.0,4.0,82,0.00,,,0.00,Wunderground v.1.15,2013-03-30 00:14:00,
2013-03-30 01:24:00,60.7,55.2,29.67,SE,135,1.0,1.0,82,0.00,,,0.00,Wunderground v.1.15,2013-03-30 00:24:00,
2013-03-30 01:29:00,60.8,55.3,29.67,ESE,120,2.0,2.0,82,0.00,,,0.00,Wunderground v.1.15,2013-03-30 00:29:00,
2013-03-30 01:39:00,61.4,55.9,29.67,South,182,7.0,9.0,82,0.00,,,0.00,Wunderground v.1.15,2013-03-30 00:39:00,
2013-03-30 01:49:00,61.0,55.8,29.67,South,188,9.0,9.0,83,0.00,,,0.00,Wunderground v.1.15,2013-03-30 00:49:00,
2013-03-30 01:54:00,60.9,55.7,29.67,South,175,9.0,18.0,83,0.00,,,0.00,Wunderground v.1.15,2013-03-30 00:54:00,
2013-03-30 01:59:00,61.0,55.8,29.66,SW,234,8.0,12.0,83,0.00,,,0.00,Wunderground v.1.15,2013-03-30 00:59:00,
2013-03-30 02:09:00,61.6,55.7,29.67,SW,235,9.0,9.0,81,0.00,,,0.00,Wunderground v.1.15,2013-03-30 01:09:00,
2013-03-30 02:14:00,61.2,55.7,29.67,SW,223,7.0,9.0,82,0.00,,,0.00,Wunderground v.1.15,2013-03-30 01:14:00,
2013-03-30 02:24:00,61.4,55.5,29.67,South,180,8.0,8.0,81,0.00,,,0.00,Wunderground v.1.15,2013-03-30 01:24:00,
2013-03-30 02:29:00,61.3,55.4,29.66,SSW,192,7.0,9.0,81,0.00,,,0.00,Wunderground v.1.15,2013-03-30 01:29:00,
2013-03-30 02:39:00,61.1,55.2,29.67,SSE,159,5.0,5.0,81,0.00,,,0.00,Wunderground v.1.15,2013-03-30 01:39:00,
2013-03-30 02:49:00,60.9,55.4,29.66,SSE,159,5.0,5.0,82,0.00,,,0.00,Wunderground v.1.15,2013-03-30 01:49:00,
2013-03-30 02:59:00,60.8,55.3,29.67,South,178,4.0,5.0,82,0.00,,,0.00,Wunderground v.1.15,2013-03-30 01:59:00,
2013-03-30 03:09:00,61.6,55.7,29.66,SSW,194,7.0,8.0,81,0.00,,,0.00,Wunderground v.1.15,2013-03-30 02:09:00,
2013-03-30 03:13:00,63.1,55.4,29.66,SW,221,11.0,14.0,76,0.00,,,0.00,Wunderground v.1.15,2013-03-30 02:13:00,
2013-03-30 03:19:00,63.8,55.4,29.66,SW,221,14.0,15.0,74,0.00,,,0.00,Wunderground v.1.15,2013-03-30 02:19:00,
2013-03-30 03:33:00,64.3,55.1,29.66,WSW,239,17.0,19.0,72,0.00,,,0.00,Wunderground v.1.15,2013-03-30 02:33:00,
2013-03-30 03:39:00,64.1,55.3,29.65,WSW,242,18.0,19.0,73,0.00,,,0.00,Wunderground v.1.15,2013-03-30 02:39:00,
2013-03-30 03:49:00,64.4,54.8,29.66,SW,217,17.0,17.0,71,0.00,,,0.00,Wunderground v.1.15,2013-03-30 02:49:00,
2013-03-30 03:59:00,64.7,54.7,29.65,SW,227,19.0,19.0,70,0.00,,,0.00,Wunderground v.1.15,2013-03-30 02:59:00,
2013-03-30 04:08:00,64.8,54.4,29.66,WSW,250,20.0,24.0,69,0.00,,,0.00,Wunderground v.1.15,2013-03-30 03:08:00,
2013-03-30 04:18:00,64.9,54.5,29.66,WSW,243,20.0,22.0,69,0.00,,,0.00,Wunderground v.1.15,2013-03-30 03:18:00,
2013-03-30 04:33:00,64.0,54.8,29.65,WSW,245,21.0,26.0,72,0.00,,,0.00,Wunderground v.1.15,2013-03-30 03:33:00,
2013-03-30 04:38:00,63.5,54.7,29.64,SW,228,20.0,26.0,73,0.00,,,0.00,Wunderground v.1.15,2013-03-30 03:38:00,
2013-03-30 04:43:00,63.2,54.8,29.64,SW,223,19.0,19.0,74,0.00,,,0.00,Wunderground v.1.15,2013-03-30 03:43:00,
2013-03-30 04:53:00,62.7,54.7,29.63,WSW,239,18.0,21.0,75,0.00,,,0.00,Wunderground v.1.15,2013-03-30 03:53:00,
2013-03-30 04:58:00,62.7,54.7,29.63,SW,231,18.0,21.0,75,0.00,,,0.00,Wunderground v.1.15,2013-03-30 03:58:00,
2013-03-30 05:03:00,62.7,54.7,29.63,SW,218,18.0,21.0,75,0.00,,,0.00,Wunderground v.1.15,2013-03-30 04:03:00,
2013-03-30 05:08:00,62.6,54.6,29.63,SW,235,18.0,21.0,75,0.00,,,0.00,Wunderground v.1.15,2013-03-30 04:08:00,
2013-03-30 05:13:00,62.6,54.6,29.63,SW,214,17.0,18.0,75,0.00,,,0.00,Wunderground v.1.15,2013-03-30 04:13:00,
2013-03-30 05:18:00,62.7,54.7,29.63,WSW,243,16.0,18.0,75,0.00,,,0.00,Wunderground v.1.15,2013-03-30 04:18:00,
2013-03-30 05:33:00,63.2,54.4,29.63,SW,229,13.0,13.0,73,0.00,,,0.00,Wunderground v.1.15,2013-03-30 04:33:00,
2013-03-30 05:38:00,63.6,54.0,29.63,SW,219,13.0,13.0,71,0.00,,,0.00,Wunderground v.1.15,2013-03-30 04:38:00,
2013-03-30 05:43:00,63.1,53.9,29.63,SW,230,12.0,12.0,72,0.00,,,0.00,Wunderground v.1.15,2013-03-30 04:43:00,
2013-03-30 05:48:00,63.2,54.0,29.63,SW,232,10.0,12.0,72,0.00,,,0.00,Wunderground v.1.15,2013-03-30 04:48:00,
2013-03-30 05:58:00,64.3,53.1,29.63,SW,232,12.0,12.0,67,0.00,,,0.00,Wunderground v.1.15,2013-03-30 04:58:00,
2013-03-30 06:08:00,64.6,52.6,29.63,WSW,250,12.0,12.0,65,0.00,,,0.00,Wunderground v.1.15,2013-03-30 05:08:00,
2013-03-30 06:13:00,64.5,52.9,29.63,SW,234,12.0,12.0,66,0.00,,,0.00,Wunderground v.1.15,2013-03-30 05:13:00,
2013-03-30 06:23:00,64.0,52.8,29.64,SSW,210,11.0,12.0,67,0.00,,,0.00,Wunderground v.1.15,2013-03-30 05:23:00,
2013-03-30 06:33:00,63.9,53.1,29.64,SW,227,12.0,12.0,68,0.00,,,0.00,Wunderground v.1.15,2013-03-30 05:33:00,
2013-03-30 06:38:00,63.8,53.0,29.64,West,266,12.0,12.0,68,0.00,,,0.00,Wunderground v.1.15,2013-03-30 05:38:00,
2013-03-30 06:48:00,64.3,52.7,29.65,WSW,247,12.0,12.0,66,0.00,,,0.00,Wunderground v.1.15,2013-03-30 05:48:00,
2013-03-30 06:53:00,64.3,52.7,29.65,WSW,253,11.0,11.0,66,0.00,,,0.00,Wunderground v.1.15,2013-03-30 05:53:00,
2013-03-30 06:58:00,64.2,52.6,29.65,WSW,257,11.0,11.0,66,0.00,,,0.00,Wunderground v.1.15,2013-03-30 05:58:00,
2013-03-30 07:08:00,64.5,51.6,29.65,West,279,10.0,11.0,63,0.00,,,0.00,Wunderground v.1.15,2013-03-30 06:08:00,
2013-03-30 07:18:00,64.7,51.8,29.65,WSW,252,10.0,10.0,63,0.00,,,0.00,Wunderground v.1.15,2013-03-30 06:18:00,
2013-03-30 07:32:00,64.5,51.6,29.66,WSW,255,9.0,13.0,63,0.00,,,0.00,Wunderground v.1.15,2013-03-30 06:32:00,
2013-03-30 07:38:00,64.7,51.8,29.66,SW,224,10.0,13.0,63,0.00,,,0.00,Wunderground v.1.15,2013-03-30 06:38:00,
2013-03-30 07:43:00,64.6,51.7,29.66,WSW,240,11.0,11.0,63,0.00,,,0.00,Wunderground v.1.15,2013-03-30 06:43:00,
2013-03-30 07:53:00,64.3,51.9,29.67,WSW,254,10.0,15.0,64,0.00,,,0.00,Wunderground v.1.15,2013-03-30 06:53:00,
2013-03-30 07:58:00,64.5,51.2,29.67,SW,231,11.0,13.0,62,0.00,,,0.00,Wunderground v.1.15,2013-03-30 06:58:00,
2013-03-30 08:08:00,64.5,51.6,29.67,WSW,244,8.0,13.0,63,0.00,,,0.00,Wunderground v.1.15,2013-03-30 07:08:00,
2013-03-30 08:13:00,64.5,51.6,29.67,West,261,7.0,8.0,63,0.00,,,0.00,Wunderground v.1.15,2013-03-30 07:13:00,
2013-03-30 08:22:00,65.2,50.0,29.67,West,262,4.0,4.0,58,0.00,,,0.00,Wunderground v.1.15,2013-03-30 07:22:00,
2013-03-30 08:32:00,66.1,48.0,29.67,SW,234,8.0,8.0,52,0.00,,,0.00,Wunderground v.1.15,2013-03-30 07:32:00,
2013-03-30 08:37:00,66.2,48.0,29.67,West,263,10.0,10.0,52,0.00,,,0.00,Wunderground v.1.15,2013-03-30 07:37:00,
2013-03-30 08:43:00,66.4,48.2,29.67,WNW,288,7.0,8.0,52,0.00,,,0.00,Wunderground v.1.15,2013-03-30 07:43:00,
2013-03-30 08:52:00,66.6,47.9,29.67,SW,235,10.0,10.0,51,0.00,,,0.00,Wunderground v.1.15,2013-03-30 07:52:00,
2013-03-30 09:02:00,66.8,48.1,29.67,West,277,13.0,13.0,51,0.00,,,0.00,Wunderground v.1.15,2013-03-30 08:02:00,
2013-03-30 09:07:00,66.8,47.6,29.67,WNW,303,11.0,13.0,50,0.00,,,0.00,Wunderground v.1.15,2013-03-30 08:07:00,
2013-03-30 09:13:00,66.8,47.6,29.67,WNW,282,11.0,12.0,50,0.00,,,0.00,Wunderground v.1.15,2013-03-30 08:13:00,
2013-03-30 09:22:00,67.1,47.3,29.67,WNW,299,12.0,20.0,49,0.00,,,0.00,Wunderground v.1.15,2013-03-30 08:22:00,
2013-03-30 09:27:00,67.2,47.4,29.68,West,269,12.0,20.0,49,0.00,,,0.00,Wunderground v.1.15,2013-03-30 08:27:00,
2013-03-30 09:37:00,67.0,46.7,29.68,WNW,293,15.0,15.0,48,0.00,,,0.00,Wunderground v.1.15,2013-03-30 08:37:00,
2013-03-30 09:43:00,66.8,47.0,29.68,WNW,300,16.0,18.0,49,0.00,,,0.00,Wunderground v.1.15,2013-03-30 08:43:00,
2013-03-30 09:52:00,66.9,47.6,29.68,WNW,298,14.0,18.0,50,0.00,,,0.00,Wunderground v.1.15,2013-03-30 08:52:00,
2013-03-30 09:57:00,67.0,47.2,29.69,West,280,13.0,16.0,49,0.00,,,0.00,Wunderground v.1.15,2013-03-30 08:57:00,
2013-03-30 10:07:00,66.5,47.3,29.69,West,264,16.0,16.0,50,0.00,,,0.00,Wunderground v.1.15,2013-03-30 09:07:00,
2013-03-30 10:12:00,66.9,47.6,29.68,West,265,15.0,16.0,50,0.00,,,0.00,Wunderground v.1.15,2013-03-30 09:12:00,
2013-03-30 10:22:00,66.5,47.3,29.69,West,263,14.0,17.0,50,0.00,,,0.00,Wunderground v.1.15,2013-03-30 09:22:00,
2013-03-30 10:27:00,66.5,48.3,29.69,WNW,290,15.0,16.0,52,0.00,,,0.00,Wunderground v.1.15,2013-03-30 09:27:00,
2013-03-30 10:37:00,66.3,47.6,29.69,WNW,295,17.0,17.0,51,0.00,,,0.00,Wunderground v.1.15,2013-03-30 09:37:00,
2013-03-30 10:42:00,66.5,47.3,29.69,WNW,284,15.0,17.0,50,0.00,,,0.00,Wunderground v.1.15,2013-03-30 09:42:00,
2013-03-30 10:52:00,66.6,47.4,29.70,WNW,290,14.0,21.0,50,0.00,,,0.00,Wunderground v.1.15,2013-03-30 09:52:00,
2013-03-30 11:02:00,66.7,46.4,29.70,WNW,284,17.0,17.0,48,0.00,,,0.00,Wunderground v.1.15,2013-03-30 10:02:00,
2013-03-30 11:07:00,66.5,45.6,29.70,SW,226,18.0,18.0,47,0.00,,,0.00,Wunderground v.1.15,2013-03-30 10:07:00,
2013-03-30 11:12:00,66.8,46.5,29.70,WNW,303,15.0,17.0,48,0.00,,,0.00,Wunderground v.1.15,2013-03-30 10:12:00,
2013-03-30 11:17:00,67.0,46.7,29.71,West,268,14.0,17.0,48,0.00,,,0.00,Wunderground v.1.15,2013-03-30 10:17:00,
2013-03-30 11:27:00,67.3,45.2,29.71,West,277,15.0,20.0,45,0.00,,,0.00,Wunderground v.1.15,2013-03-30 10:27:00,
2013-03-30 11:37:00,67.0,45.5,29.72,West,275,17.0,22.0,46,0.00,,,0.00,Wunderground v.1.15,2013-03-30 10:37:00,
2013-03-30 11:42:00,67.1,45.6,29.71,WSW,246,17.0,17.0,46,0.00,,,0.00,Wunderground v.1.15,2013-03-30 10:42:00,
2013-03-30 11:52:00,67.7,44.4,29.71,West,278,15.0,15.0,43,0.00,,,0.00,Wunderground v.1.15,2013-03-30 10:52:00,
2013-03-30 11:57:00,67.9,42.7,29.71,West,267,15.0,17.0,40,0.00,,,0.00,Wunderground v.1.15,2013-03-30 10:57:00,
2013-03-30 12:07:00,68.1,41.5,29.71,WNW,286,18.0,18.0,38,0.00,,,0.00,Wunderground v.1.15,2013-03-30 11:07:00,
2013-03-30 12:12:00,68.2,41.6,29.72,WSW,244,19.0,24.0,38,0.00,,,0.00,Wunderground v.1.15,2013-03-30 11:12:00,
2013-03-30 12:31:00,68.4,44.4,29.72,West,269,14.0,14.0,42,0.00,,,0.00,Wunderground v.1.15,2013-03-30 11:31:00,
2013-03-30 12:36:00,67.9,44.6,29.72,West,267,14.0,14.0,43,0.00,,,0.00,Wunderground v.1.15,2013-03-30 11:36:00,
2013-03-30 12:42:00,67.9,44.6,29.72,West,263,14.0,14.0,43,0.00,,,0.00,Wunderground v.1.15,2013-03-30 11:42:00,
2013-03-30 12:51:00,67.1,42.6,29.72,WNW,298,17.0,17.0,41,0.00,,,0.00,Wunderground v.1.15,2013-03-30 11:51:00,
2013-03-30 13:01:00,66.9,43.0,29.73,WNW,285,18.0,18.0,42,0.00,,,0.00,Wunderground v.1.15,2013-03-30 12:01:00,
2013-03-30 13:07:00,67.3,43.4,29.73,West,262,15.0,18.0,42,0.00,,,0.00,Wunderground v.1.15,2013-03-30 12:07:00,
2013-03-30 13:12:00,67.7,44.4,29.73,WNW,285,13.0,13.0,43,0.00,,,0.00,Wunderground v.1.15,2013-03-30 12:12:00,
2013-03-30 13:21:00,67.1,43.8,29.73,WSW,240,15.0,15.0,43,0.00,,,0.00,Wunderground v.1.15,2013-03-30 12:21:00,
2013-03-30 13:27:00,67.0,43.1,29.73,West,263,15.0,15.0,42,0.00,,,0.00,Wunderground v.1.15,2013-03-30 12:27:00,
2013-03-30 13:37:00,67.4,42.9,29.73,WNW,287,13.0,15.0,41,0.00,,,0.00,Wunderground v.1.15,2013-03-30 12:37:00,
2013-03-30 13:46:00,67.4,42.9,29.73,NW,305,17.0,17.0,41,0.00,,,0.00,Wunderground v.1.15,2013-03-30 12:46:00,
2013-03-30 14:01:00,67.3,42.1,29.73,WNW,303,17.0,17.0,40,0.00,,,0.00,Wunderground v.1.15,2013-03-30 13:01:00,
2013-03-30 14:06:00,67.4,41.6,29.73,West,263,17.0,19.0,39,0.00,,,0.00,Wunderground v.1.15,2013-03-30 13:06:00,
2013-03-30 14:12:00,67.4,41.6,29.73,WNW,299,18.0,20.0,39,0.00,,,0.00,Wunderground v.1.15,2013-03-30 13:12:00,
2013-03-30 14:21:00,67.9,42.0,29.73,West,279,15.0,15.0,39,0.00,,,0.00,Wunderground v.1.15,2013-03-30 13:21:00,
2013-03-30 14:27:00,68.3,43.0,29.73,WSW,249,14.0,22.0,40,0.00,,,0.00,Wunderground v.1.15,2013-03-30 13:27:00,
2013-03-30 14:37:00,68.1,42.2,29.73,WNW,301,16.0,16.0,39,0.00,,,0.00,Wunderground v.1.15,2013-03-30 13:37:00,
2013-03-30 14:42:00,67.8,43.2,29.73,WSW,246,14.0,19.0,41,0.00,,,0.00,Wunderground v.1.15,2013-03-30 13:42:00,
2013-03-30 14:47:00,67.5,42.3,29.73,WSW,252,17.0,19.0,40,0.00,,,0.00,Wunderground v.1.15,2013-03-30 13:47:00,
2013-03-30 14:52:00,68.2,42.9,29.73,WNW,284,18.0,18.0,40,0.00,,,0.00,Wunderground v.1.15,2013-03-30 13:52:00,
2013-03-30 14:58:00,67.6,43.1,29.73,SW,235,16.0,17.0,41,0.00,,,0.00,Wunderground v.1.15,2013-03-30 13:58:00,
2013-03-30 15:07:00,68.4,41.1,29.73,West,262,15.0,15.0,37,0.00,,,0.00,Wunderground v.1.15,2013-03-30 14:07:00,
2013-03-30 15:12:00,68.4,41.1,29.73,West,266,15.0,15.0,37,0.00,,,0.00,Wunderground v.1.15,2013-03-30 14:12:00,
2013-03-30 15:17:00,68.7,40.7,29.73,NW,317,14.0,16.0,36,0.00,,,0.00,Wunderground v.1.15,2013-03-30 14:17:00,
2013-03-30 15:27:00,68.5,41.2,29.73,WSW,254,15.0,15.0,37,0.00,,,0.00,Wunderground v.1.15,2013-03-30 14:27:00,
2013-03-30 15:37:00,68.7,39.9,29.72,WNW,296,15.0,20.0,35,0.00,,,0.00,Wunderground v.1.15,2013-03-30 14:37:00,
2013-03-30 15:42:00,68.5,39.8,29.73,WNW,294,16.0,20.0,35,0.00,,,0.00,Wunderground v.1.15,2013-03-30 14:42:00,
2013-03-30 15:52:00,68.6,39.1,29.72,WNW,298,16.0,17.0,34,0.00,,,0.00,Wunderground v.1.15,2013-03-30 14:52:00,
2013-03-30 15:57:00,68.8,40.0,29.72,WSW,250,14.0,23.0,35,0.00,,,0.00,Wunderground v.1.15,2013-03-30 14:57:00,
2013-03-30 16:07:00,69.2,40.4,29.73,WNW,286,12.0,12.0,35,0.00,,,0.00,Wunderground v.1.15,2013-03-30 15:07:00,
2013-03-30 16:12:00,68.9,40.1,29.72,WSW,256,13.0,15.0,35,0.00,,,0.00,Wunderground v.1.15,2013-03-30 15:12:00,
2013-03-30 16:17:00,68.5,39.8,29.72,West,277,15.0,15.0,35,0.00,,,0.00,Wunderground v.1.15,2013-03-30 15:17:00,
2013-03-30 16:27:00,68.8,40.0,29.73,WSW,252,12.0,12.0,35,0.00,,,0.00,Wunderground v.1.15,2013-03-30 15:27:00,
2013-03-30 16:37:00,68.6,40.6,29.73,NW,315,12.0,12.0,36,0.00,,,0.00,Wunderground v.1.15,2013-03-30 15:37:00,
2013-03-30 16:42:00,68.9,40.8,29.73,WSW,250,11.0,12.0,36,0.00,,,0.00,Wunderground v.1.15,2013-03-30 15:42:00,
2013-03-30 16:52:00,69.1,41.7,29.73,West,274,9.0,10.0,37,0.00,,,0.00,Wunderground v.1.15,2013-03-30 15:52:00,
2013-03-30 16:57:00,68.7,41.4,29.73,WSW,250,9.0,11.0,37,0.00,,,0.00,Wunderground v.1.15,2013-03-30 15:57:00,
2013-03-30 17:07:00,68.6,42.0,29.74,NW,304,8.0,11.0,38,0.00,,,0.00,Wunderground v.1.15,2013-03-30 16:07:00,
2013-03-30 17:17:00,68.3,41.7,29.74,WSW,246,8.0,8.0,38,0.00,,,0.00,Wunderground v.1.15,2013-03-30 16:17:00,
2013-03-30 17:32:00,68.1,43.5,29.74,WSW,252,7.0,7.0,41,0.00,,,0.00,Wunderground v.1.15,2013-03-30 16:32:00,
2013-03-30 17:37:00,67.2,45.1,29.74,SW,227,8.0,10.0,45,0.00,,,0.00,Wunderground v.1.15,2013-03-30 16:37:00,
2013-03-30 17:42:00,66.8,49.1,29.74,South,178,8.0,8.0,53,0.00,,,0.00,Wunderground v.1.15,2013-03-30 16:42:00,
2013-03-30 17:47:00,64.7,51.4,29.74,South,190,6.0,8.0,62,0.00,,,0.00,Wunderground v.1.15,2013-03-30 16:47:00,
2013-03-30 17:57:00,63.4,50.1,29.75,SW,234,8.0,9.0,62,0.00,,,0.00,Wunderground v.1.15,2013-03-30 16:57:00,
2013-03-30 18:07:00,63.6,50.3,29.75,WSW,237,7.0,11.0,62,0.00,,,0.00,Wunderground v.1.15,2013-03-30 17:07:00,
2013-03-30 18:12:00,63.8,47.8,29.75,West,269,8.0,11.0,56,0.00,,,0.00,Wunderground v.1.15,2013-03-30 17:12:00,
2013-03-30 18:17:00,63.5,50.2,29.76,SW,234,9.0,12.0,62,0.00,,,0.00,Wunderground v.1.15,2013-03-30 17:17:00,
2013-03-30 18:31:00,65.0,44.8,29.75,WSW,255,9.0,10.0,48,0.00,,,0.00,Wunderground v.1.15,2013-03-30 17:31:00,
2013-03-30 18:37:00,65.5,44.7,29.75,SW,236,9.0,10.0,47,0.00,,,0.00,Wunderground v.1.15,2013-03-30 17:37:00,
2013-03-30 18:42:00,65.4,45.2,29.75,WSW,252,8.0,8.0,48,0.00,,,0.00,Wunderground v.1.15,2013-03-30 17:42:00,
2013-03-30 18:51:00,65.2,45.0,29.76,WSW,244,7.0,7.0,48,0.00,,,0.00,Wunderground v.1.15,2013-03-30 17:51:00,
2013-03-30 19:01:00,64.6,45.0,29.76,WSW,242,8.0,8.0,49,0.00,,,0.00,Wunderground v.1.15,2013-03-30 18:01:00,
2013-03-30 19:07:00,64.7,44.5,29.76,SW,230,7.0,11.0,48,0.00,,,0.00,Wunderground v.1.15,2013-03-30 18:07:00,
2013-03-30 19:12:00,64.5,46.5,29.76,SSW,213,6.0,6.0,52,0.00,,,0.00,Wunderground v.1.15,2013-03-30 18:12:00,
2013-03-30 19:22:00,63.6,45.6,29.77,SW,214,4.0,5.0,52,0.00,,,0.00,Wunderground v.1.15,2013-03-30 18:22:00,
2013-03-30 19:27:00,63.7,46.7,29.77,SSW,198,5.0,7.0,54,0.00,,,0.00,Wunderground v.1.15,2013-03-30 18:27:00,
2013-03-30 19:37:00,63.8,45.3,29.77,SSW,206,5.0,5.0,51,0.00,,,0.00,Wunderground v.1.15,2013-03-30 18:37:00,
2013-03-30 19:42:00,63.7,46.7,29.77,SSW,205,4.0,4.0,54,0.00,,,0.00,Wunderground v.1.15,2013-03-30 18:42:00,
2013-03-30 19:52:00,63.0,47.5,29.78,WSW,257,2.0,5.0,57,0.00,,,0.00,Wunderground v.1.15,2013-03-30 18:52:00,
2013-03-30 20:01:00,63.6,44.6,29.78,West,262,5.0,5.0,50,0.00,,,0.00,Wunderground v.1.15,2013-03-30 19:01:00,
2013-03-30 20:12:00,64.3,43.1,29.78,West,273,5.0,5.0,46,0.00,,,0.00,Wunderground v.1.15,2013-03-30 19:12:00,
2013-03-30 20:21:00,64.3,42.5,29.78,SW,224,3.0,3.0,45,0.00,,,0.00,Wunderground v.1.15,2013-03-30 19:21:00,
2013-03-30 20:31:00,64.5,41.5,29.79,WNW,298,4.0,4.0,43,0.00,,,0.00,Wunderground v.1.15,2013-03-30 19:31:00,
2013-03-30 20:37:00,64.5,42.1,29.79,WSW,248,3.0,5.0,44,0.00,,,0.00,Wunderground v.1.15,2013-03-30 19:37:00,
2013-03-30 20:42:00,64.4,43.2,29.79,WSW,244,3.0,3.0,46,0.00,,,0.00,Wunderground v.1.15,2013-03-30 19:42:00,
2013-03-30 20:51:00,64.0,43.9,29.80,WSW,244,3.0,3.0,48,0.00,,,0.00,Wunderground v.1.15,2013-03-30 19:51:00,
2013-03-30 20:57:00,63.9,43.8,29.80,SW,222,3.0,3.0,48,0.00,,,0.00,Wunderground v.1.15,2013-03-30 19:57:00,
2013-03-30 21:07:00,63.7,43.6,29.80,SW,222,2.0,2.0,48,0.00,,,0.00,Wunderground v.1.15,2013-03-30 20:07:00,
2013-03-30 21:12:00,63.8,44.3,29.80,SW,222,2.0,2.0,49,0.00,,,0.00,Wunderground v.1.15,2013-03-30 20:12:00,
2013-03-30 21:22:00,64.1,42.9,29.81,WNW,296,2.0,8.0,46,0.00,,,0.00,Wunderground v.1.15,2013-03-30 20:22:00,
2013-03-30 21:27:00,64.1,42.9,29.81,WNW,294,4.0,4.0,46,0.00,,,0.00,Wunderground v.1.15,2013-03-30 20:27:00,
2013-03-30 21:37:00,64.4,43.2,29.81,WNW,298,5.0,6.0,46,0.00,,,0.00,Wunderground v.1.15,2013-03-30 20:37:00,
2013-03-30 21:42:00,64.6,43.3,29.81,WNW,286,5.0,6.0,46,0.00,,,0.00,Wunderground v.1.15,2013-03-30 20:42:00,
2013-03-30 21:52:00,64.6,43.3,29.81,West,280,6.0,6.0,46,0.00,,,0.00,Wunderground v.1.15,2013-03-30 20:52:00,
2013-03-30 22:01:00,64.5,43.3,29.81,NW,304,5.0,6.0,46,0.00,,,0.00,Wunderground v.1.15,2013-03-30 21:01:00,
2013-03-30 22:07:00,64.5,43.3,29.81,NW,305,4.0,4.0,46,0.00,,,0.00,Wunderground v.1.15,2013-03-30 21:07:00,
2013-03-30 22:17:00,64.0,43.9,29.81,NW,306,4.0,6.0,48,0.00,,,0.00,Wunderground v.1.15,2013-03-30 21:17:00,
2013-03-30 22:27:00,64.0,43.9,29.81,WSW,245,6.0,7.0,48,0.00,,,0.00,Wunderground v.1.15,2013-03-30 21:27:00,
2013-03-30 22:37:00,64.3,44.2,29.81,NW,306,7.0,7.0,48,0.00,,,0.00,Wunderground v.1.15,2013-03-30 21:37:00,
2013-03-30 22:42:00,64.2,44.1,29.81,NW,306,6.0,7.0,48,0.00,,,0.00,Wunderground v.1.15,2013-03-30 21:42:00,
2013-03-30 22:47:00,64.1,44.0,29.81,WNW,285,6.0,7.0,48,0.00,,,0.00,Wunderground v.1.15,2013-03-30 21:47:00,
2013-03-30 22:57:00,64.0,43.9,29.81,West,273,6.0,6.0,48,0.00,,,0.00,Wunderground v.1.15,2013-03-30 21:57:00,
2013-03-30 23:07:00,63.9,43.8,29.81,WNW,292,6.0,6.0,48,0.00,,,0.00,Wunderground v.1.15,2013-03-30 22:07:00,
2013-03-30 23:21:00,64.1,43.4,29.81,West,281,6.0,8.0,47,0.00,,,0.00,Wunderground v.1.15,2013-03-30 22:21:00,
2013-03-30 23:26:00,63.9,43.3,29.81,NW,315,5.0,8.0,47,0.00,,,0.00,Wunderground v.1.15,2013-03-30 22:26:00,
2013-03-30 23:31:00,63.8,43.2,29.81,WNW,300,5.0,5.0,47,0.00,,,0.00,Wunderground v.1.15,2013-03-30 22:31:00,
2013-03-30 23:41:00,63.8,42.6,29.80,WNW,283,4.0,8.0,46,0.00,,,0.00,Wunderground v.1.15,2013-03-30 22:41:00,
2013-03-30 23:46:00,63.5,42.9,29.80,NW,322,3.0,6.0,47,0.00,,,0.00,Wunderground v.1.15,2013-03-30 22:46:00,
2013-03-30 23:55:00,63.4,42.2,29.81,WNW,301,5.0,5.0,46,0.00,,,0.00,Wunderground v.1.15,2013-03-30 22:55:00,